Time;durP1;ratioP1;P1;durP2;ratioP2;P2;SDS_P1;SDS_P2;PMS_P1;PMS_P2;Temp;Humidity;BMP_temperature;BMP_pressure;BME280_temperature;BME280_humidity;BME280_pressure;Samples;Min_cycle;Max_cycle;Signal;HPM_P1;HPM_P2
2021/01/21 00:01:16;;;;;;;;;14.00;11.67;;;;;5.19;74.63;99601.38;5019061;28;8870;-60
2021/01/21 00:03:43;;;;;;;;;13.33;9.00;;;;;5.16;74.80;99597.06;5026311;28;8962;-59
2021/01/21 00:06:10;;;;;;;;;8.67;8.00;;;;;5.17;74.30;99585.47;5023309;28;8987;-60
2021/01/21 00:08:37;;;;;;;;;15.33;10.33;;;;;5.22;74.54;99598.59;5029798;28;8828;-59
2021/01/21 00:11:04;;;;;;;;;9.67;8.00;;;;;5.25;73.96;99582.50;5018484;28;8967;-60
2021/01/21 00:13:31;;;;;;;;;8.33;8.33;;;;;5.28;74.03;99585.00;5021582;28;8852;-60
2021/01/21 00:15:58;;;;;;;;;16.00;11.00;;;;;5.18;73.89;99587.19;5021955;28;8879;-60
2021/01/21 00:18:25;;;;;;;;;8.00;8.00;;;;;5.04;74.29;99582.44;5017575;28;8859;-60
2021/01/21 00:20:52;;;;;;;;;11.00;9.00;;;;;5.09;74.10;99586.72;5022121;28;8851;-59
2021/01/21 00:23:19;;;;;;;;;10.00;9.00;;;;;5.22;73.99;99587.94;5022232;28;8866;-59
2021/01/21 00:25:50;;;;;;;;;11.00;9.00;;;;;5.16;74.30;99589.06;5015832;28;9580;-60
2021/01/21 00:28:19;;;;;;;;;13.00;11.00;;;;;5.26;73.24;99585.06;5025113;28;8854;-59
2021/01/21 00:30:46;;;;;;;;;12.67;9.33;;;;;5.14;74.35;99576.75;5031365;28;8976;-60
2021/01/21 00:33:13;;;;;;;;;11.00;9.00;;;;;5.12;75.02;99575.94;5014448;28;8842;-60
2021/01/21 00:35:40;;;;;;;;;14.00;9.00;;;;;5.36;73.73;99580.22;5024746;28;8849;-60
2021/01/21 00:38:09;;;;;;;;;9.00;8.00;;;;;5.20;74.03;99582.66;5016006;28;8928;-60
2021/01/21 00:40:36;;;;;;;;;11.00;8.00;;;;;5.28;73.73;99582.34;5020600;28;8868;-60
2021/01/21 00:43:03;;;;;;;;;12.00;9.00;;;;;5.16;74.01;99582.84;5016247;28;8859;-59
2021/01/21 00:45:30;;;;;;;;;16.33;7.67;;;;;5.33;74.07;99575.03;5022643;28;8935;-60
2021/01/21 00:47:57;;;;;;;;;12.67;9.00;;;;;5.34;73.97;99578.56;5013240;28;8957;-59
2021/01/21 00:50:24;;;;;;;;;8.67;8.67;;;;;5.35;72.70;99573.19;5021324;28;9589;-59
2021/01/21 00:52:51;;;;;;;;;13.33;9.00;;;;;5.32;73.45;99575.09;5020408;28;8832;-59
2021/01/21 00:55:19;;;;;;;;;10.00;8.00;;;;;5.38;73.08;99575.72;5018831;28;8876;-59
2021/01/21 00:57:46;;;;;;;;;14.00;9.00;;;;;5.53;72.99;99575.97;5023497;28;8849;-60
2021/01/21 01:00:13;;;;;;;;;14.00;9.67;;;;;5.36;73.59;99579.38;5011827;28;8866;-59
2021/01/21 01:02:40;;;;;;;;;13.33;11.00;;;;;5.28;73.21;99582.34;5022974;28;8852;-60
2021/01/21 01:05:09;;;;;;;;;11.00;9.00;;;;;5.17;74.39;99571.28;5021576;28;8978;-59
2021/01/21 01:07:36;;;;;;;;;9.00;9.00;;;;;5.32;72.80;99573.31;5019104;28;8843;-59
2021/01/21 01:10:04;;;;;;;;;9.00;8.33;;;;;5.34;73.80;99568.78;5021452;28;8870;-60
2021/01/21 01:12:31;;;;;;;;;16.67;9.67;;;;;5.32;74.02;99562.69;5018718;28;8847;-60
2021/01/21 01:14:58;;;;;;;;;14.00;8.00;;;;;5.31;73.13;99568.91;5020966;28;8854;-59
2021/01/21 01:17:26;;;;;;;;;9.67;9.67;;;;;5.37;73.53;99560.69;5024290;28;8847;-60
2021/01/21 01:19:53;;;;;;;;;15.33;9.00;;;;;5.27;73.51;99554.00;5023249;28;8841;-59
2021/01/21 01:22:20;;;;;;;;;15.67;12.67;;;;;5.46;72.23;99552.28;5014182;28;8859;-59
2021/01/21 01:24:47;;;;;;;;;16.33;11.67;;;;;5.36;72.42;99556.28;5020545;28;8889;-60
2021/01/21 01:27:13;;;;;;;;;15.00;11.00;;;;;5.44;72.96;99555.94;5020087;28;8911;-59
2021/01/21 01:29:40;;;;;;;;;11.00;11.00;;;;;5.33;73.21;99553.75;5020163;28;8871;-60
2021/01/21 01:32:07;;;;;;;;;12.67;11.00;;;;;5.33;73.63;99553.75;5020764;28;8858;-60
2021/01/21 01:34:34;;;;;;;;;10.33;8.67;;;;;5.36;73.35;99542.97;5020773;28;8876;-59
2021/01/21 01:37:01;;;;;;;;;12.00;12.00;;;;;5.24;73.89;99540.84;5020415;28;8866;-59
2021/01/21 01:39:28;;;;;;;;;11.00;9.00;;;;;5.35;73.32;99540.38;5026945;28;8838;-60
2021/01/21 01:41:55;;;;;;;;;13.67;11.67;;;;;5.34;72.95;99536.81;5019645;28;8843;-60
2021/01/21 01:44:22;;;;;;;;;19.33;11.67;;;;;5.30;72.65;99539.72;5020275;28;8839;-60
2021/01/21 01:46:49;;;;;;;;;11.67;9.00;;;;;5.19;73.37;99533.03;5034122;28;8841;-60
2021/01/21 01:49:18;;;;;;;;;15.33;10.33;;;;;5.33;73.41;99535.13;5019059;28;8839;-59
2021/01/21 01:51:45;;;;;;;;;14.00;9.67;;;;;5.33;73.33;99532.44;5019365;28;8965;-60
2021/01/21 01:54:12;;;;;;;;;15.67;12.00;;;;;5.27;72.94;99528.25;5021547;28;8858;-60
2021/01/21 01:56:39;;;;;;;;;15.00;12.67;;;;;5.23;73.90;99525.78;5017214;28;8986;-60
2021/01/21 01:59:06;;;;;;;;;17.33;14.00;;;;;5.36;72.71;99524.31;5026377;28;8851;-58
2021/01/21 02:01:35;;;;;;;;;19.00;9.67;;;;;5.18;73.18;99527.78;5012068;28;8858;-58
2021/01/21 02:04:02;;;;;;;;;15.67;11.00;;;;;5.19;73.81;99519.72;5019054;28;8855;-58
2021/01/21 02:06:29;;;;;;;;;16.33;12.00;;;;;5.10;73.90;99521.91;5012224;28;8864;-58
2021/01/21 02:08:58;;;;;;;;;14.00;12.00;;;;;5.18;73.44;99522.44;5025068;28;8848;-57
2021/01/21 02:11:39;;;;;;;;;16.67;11.00;;;;;5.09;73.62;99512.19;5034419;28;8866;-58
2021/01/21 02:14:41;;;;;;;;;11.67;8.00;;;;;5.31;72.29;99513.00;5019687;28;8863;-57
2021/01/21 02:17:34;;;;;;;;;14.67;9.00;;;;;5.27;73.78;99506.09;5016542;28;8843;-57
2021/01/21 02:20:29;;;;;;;;;10.33;9.00;;;;;5.46;72.47;99499.03;5009594;28;8835;-57
2021/01/21 02:23:54;;;;;;;;;17.33;10.67;;;;;5.39;71.81;99492.25;5018162;28;8848;-57
2021/01/21 02:26:46;;;;;;;;;10.67;8.33;;;;;5.49;71.52;99498.91;5017805;28;8839;-55
2021/01/21 02:29:27;;;;;;;;;10.67;8.67;;;;;5.58;72.34;99494.09;5041423;28;8886;-62
2021/01/21 02:32:13;;;;;;;;;11.00;7.33;;;;;5.65;71.77;99493.75;5035079;28;8886;-57
2021/01/21 02:34:51;;;;;;;;;14.00;8.00;;;;;5.52;72.25;99489.06;4993049;28;8865;-57
2021/01/21 02:37:27;;;;;;;;;8.33;7.33;;;;;5.60;71.72;99481.59;5015695;28;8839;-57
2021/01/21 02:39:58;;;;;;;;;8.00;8.00;;;;;5.58;71.08;99479.00;5019324;28;8843;-52
2021/01/21 02:42:27;;;;;;;;;8.00;7.67;;;;;5.64;71.12;99480.53;5011452;28;8843;-51
2021/01/21 02:44:54;;;;;;;;;11.33;11.00;;;;;5.64;70.78;99477.88;5013068;28;8945;-54
2021/01/21 02:47:23;;;;;;;;;11.00;8.00;;;;;5.64;71.56;99483.19;5018379;28;8827;-57
2021/01/21 02:49:51;;;;;;;;;7.67;5.00;;;;;5.83;71.13;99472.56;5033996;28;8869;-57
2021/01/21 02:52:56;;;;;;;;;8.00;8.00;;;;;5.91;70.49;99473.94;5034692;28;8947;-57
2021/01/21 02:55:39;;;;;;;;;9.67;8.00;;;;;5.93;69.97;99471.22;5026021;28;8841;-55
2021/01/21 02:58:28;;;;;;;;;10.33;7.00;;;;;5.84;70.22;99464.50;5017472;28;8953;-57
2021/01/21 03:00:55;;;;;;;;;8.00;6.33;;;;;5.91;70.72;99471.28;5024455;28;8835;-57
2021/01/21 03:03:27;;;;;;;;;7.33;6.33;;;;;5.96;70.49;99470.25;5033934;28;9589;-58
2021/01/21 03:05:57;;;;;;;;;11.00;4.00;;;;;6.07;69.59;99468.78;5020458;28;8835;-56
2021/01/21 03:08:30;;;;;;;;;8.00;6.33;;;;;6.12;69.60;99468.59;5010645;28;8881;-57
2021/01/21 03:11:14;;;;;;;;;7.33;5.67;;;;;6.05;70.00;99467.13;5026698;28;8895;-57
2021/01/21 03:13:43;;;;;;;;;8.33;4.67;;;;;6.08;69.59;99467.00;5017576;28;8877;-57
2021/01/21 03:16:11;;;;;;;;;8.00;5.00;;;;;6.13;69.94;99471.19;5020245;28;8847;-57
2021/01/21 03:18:39;;;;;;;;;8.00;8.00;;;;;6.19;68.92;99464.69;5024524;28;8836;-58
2021/01/21 03:21:05;;;;;;;;;5.33;5.00;;;;;6.34;67.89;99469.28;5025854;28;8878;-57
2021/01/21 03:23:41;;;;;;;;;12.00;4.00;;;;;6.37;67.61;99466.50;5019399;28;8880;-57
2021/01/21 03:26:10;;;;;;;;;7.33;6.33;;;;;6.24;68.02;99468.03;5022934;28;8850;-57
2021/01/21 03:28:38;;;;;;;;;5.00;5.00;;;;;6.17;69.61;99466.56;5021467;28;8847;-57
2021/01/21 03:31:05;;;;;;;;;10.33;5.67;;;;;6.33;68.89;99461.38;5022037;28;8881;-58
2021/01/21 03:33:33;;;;;;;;;5.00;5.00;;;;;6.26;68.01;99466.13;5016792;28;8847;-57
2021/01/21 03:36:00;;;;;;;;;11.33;10.67;;;;;6.26;68.28;99465.25;5023651;28;8851;-58
2021/01/21 03:38:27;;;;;;;;;16.67;12.33;;;;;6.14;68.73;99461.38;5017262;28;8942;-57
2021/01/21 03:40:54;;;;;;;;;23.33;23.33;;;;;6.23;69.04;99466.28;5021392;28;8841;-55
2021/01/21 03:43:21;;;;;;;;;19.00;16.00;;;;;5.99;70.15;99467.44;5023225;28;8922;-57
2021/01/21 03:45:47;;;;;;;;;13.67;12.00;;;;;6.03;70.43;99464.56;5019305;28;9514;-57
2021/01/21 03:48:14;;;;;;;;;11.33;9.67;;;;;6.00;69.14;99471.81;5016408;28;8854;-57
2021/01/21 03:50:43;;;;;;;;;9.00;6.00;;;;;5.90;70.61;99463.38;5015041;28;8827;-57
2021/01/21 03:53:10;;;;;;;;;10.33;8.33;;;;;5.83;70.37;99468.09;5014061;28;8875;-56
2021/01/21 03:55:37;;;;;;;;;10.33;8.00;;;;;5.59;70.49;99454.09;5014813;28;8877;-57
2021/01/21 03:58:04;;;;;;;;;6.33;5.00;;;;;5.44;71.25;99455.63;5010335;28;8888;-57
2021/01/21 04:00:31;;;;;;;;;13.33;9.00;;;;;5.62;71.07;99453.09;5012798;28;9641;-58
2021/01/21 04:02:58;;;;;;;;;14.00;9.00;;;;;5.79;69.69;99458.50;5014174;28;8851;-58
2021/01/21 04:05:25;;;;;;;;;13.67;8.33;;;;;5.56;70.67;99448.06;5014666;28;8882;-57
2021/01/21 04:07:52;;;;;;;;;11.00;8.67;;;;;5.45;70.38;99452.06;5014760;28;8834;-58
2021/01/21 04:26:18;;;;;;;;;14.33;10.67;;;;;5.39;71.78;99446.13;5013757;28;8841;-57
2021/01/21 04:28:45;;;;;;;;;9.67;8.00;;;;;5.24;70.87;99450.34;5013019;28;8858;-56
2021/01/21 04:31:12;;;;;;;;;8.67;7.00;;;;;5.23;71.97;99446.78;5013917;28;8846;-57
2021/01/21 04:33:39;;;;;;;;;14.33;9.00;;;;;5.11;72.53;99446.44;5013774;28;8851;-55
2021/01/21 04:36:07;;;;;;;;;10.00;8.33;;;;;4.86;74.04;99447.50;5014428;28;9746;-57
2021/01/21 04:38:34;;;;;;;;;11.33;9.33;;;;;4.91;73.82;99444.66;5013472;28;8851;-57
2021/01/21 04:41:02;;;;;;;;;14.33;12.00;;;;;4.51;74.89;99447.19;5014189;28;8846;-58
2021/01/21 04:43:29;;;;;;;;;18.00;12.67;;;;;4.27;75.59;99445.53;5028906;28;8878;-57
2021/01/21 04:45:56;;;;;;;;;8.00;8.00;;;;;4.21;75.14;99443.94;5014097;28;8954;-57
2021/01/21 04:48:24;;;;;;;;;18.33;13.33;;;;;4.08;76.50;99438.28;5013901;28;8846;-57
2021/01/21 04:50:51;;;;;;;;;17.00;11.00;;;;;3.84;77.17;99440.06;5029508;28;9614;-58
2021/01/21 04:53:24;;;;;;;;;18.67;17.00;;;;;3.83;76.55;99443.66;5029569;28;9596;-58
2021/01/21 04:56:03;;;;;;;;;19.00;14.33;;;;;3.83;76.64;99442.78;5014090;28;8850;-58
2021/01/21 04:58:41;;;;;;;;;20.33;17.33;;;;;3.52;77.96;99436.81;5028869;28;9034;-54
2021/01/21 05:01:08;;;;;;;;;20.00;12.67;;;;;3.66;77.58;99436.34;5028693;28;8842;-57
2021/01/21 05:03:37;;;;;;;;;22.67;14.00;;;;;3.64;77.35;99439.97;5028625;28;8863;-56
2021/01/21 05:06:05;;;;;;;;;24.25;20.00;;;;;3.54;78.17;99439.44;5013284;28;8855;-57
2021/01/21 05:08:33;;;;;;;;;23.67;18.33;;;;;3.33;78.10;99437.56;5013693;28;8859;-57
2021/01/21 05:11:00;;;;;;;;;19.00;13.67;;;;;3.65;77.59;99426.63;5029022;28;8847;-56
2021/01/21 05:13:27;;;;;;;;;23.33;16.00;;;;;3.82;75.98;99441.03;5013653;28;8855;-56
2021/01/21 05:15:54;;;;;;;;;18.00;13.00;;;;;4.01;74.97;99436.78;5012975;28;8865;-57
2021/01/21 05:18:29;;;;;;;;;16.00;13.33;;;;;4.02;75.75;99438.50;5013991;28;8867;-58
2021/01/21 05:20:56;;;;;;;;;18.67;16.33;;;;;3.84;75.58;99439.19;5013672;28;8981;-55
2021/01/21 05:23:25;;;;;;;;;46.75;33.50;;;;;3.37;76.94;99437.41;5013012;28;9615;-58
2021/01/21 05:25:53;;;;;;;;;48.75;38.50;;;;;2.98;78.31;99426.44;5013204;28;8873;-57
2021/01/21 05:28:20;;;;;;;;;48.50;35.25;;;;;2.68;79.74;99429.19;5011711;28;8863;-57
2021/01/21 05:30:49;;;;;;;;;48.00;37.00;;;;;2.83;79.44;99428.66;5013206;28;8974;-57
2021/01/21 05:33:16;;;;;;;;;34.00;27.00;;;;;2.54;80.02;99426.13;5013632;28;8870;-58
2021/01/21 05:35:44;;;;;;;;;12.00;10.00;;;;;3.07;78.96;99420.78;5028719;28;8847;-57
2021/01/21 05:38:11;;;;;;;;;17.00;10.75;;;;;3.19;78.25;99428.31;5028292;28;8905;-57
2021/01/21 05:40:38;;;;;;;;;24.50;15.50;;;;;3.27;77.54;99428.03;5027954;28;8843;-58
2021/01/21 05:43:05;;;;;;;;;28.75;19.25;;;;;2.86;79.11;99425.03;5012084;28;8866;-56
2021/01/21 05:45:32;;;;;;;;;31.75;23.25;;;;;2.94;78.43;99432.75;5012921;28;8843;-57
2021/01/21 05:48:02;;;;;;;;;31.75;22.50;;;;;2.61;79.19;99427.69;5028644;28;8893;-60
2021/01/21 05:50:30;;;;;;;;;29.00;17.00;;;;;2.68;79.78;99423.88;5012683;28;8909;-60
2021/01/21 05:52:59;;;;;;;;;31.00;22.50;;;;;2.58;78.94;99433.94;5013361;28;9565;-60
2021/01/21 05:55:28;;;;;;;;;22.75;17.50;;;;;2.45;80.01;99431.72;5012826;28;8843;-60
2021/01/21 05:57:56;;;;;;;;;26.25;18.50;;;;;2.65;79.89;99439.91;5012403;28;8851;-60
2021/01/21 06:00:26;;;;;;;;;16.00;13.25;;;;;2.36;79.99;99439.06;5012585;28;8838;-60
2021/01/21 06:02:54;;;;;;;;;30.25;27.50;;;;;2.22;80.25;99441.28;5027224;28;8830;-61
2021/01/21 06:05:23;;;;;;;;;32.50;24.25;;;;;2.17;81.00;99444.06;5012373;28;9576;-60
2021/01/21 06:07:51;;;;;;;;;32.50;24.25;;;;;2.45;80.51;99442.31;4997530;28;8848;-60
2021/01/21 06:10:21;;;;;;;;;29.00;19.00;;;;;2.33;80.61;99439.16;5032183;28;8917;-60
2021/01/21 06:12:53;;;;;;;;;27.25;24.00;;;;;2.29;80.71;99449.91;5023252;28;8873;-60
2021/01/21 06:15:21;;;;;;;;;27.00;24.75;;;;;2.30;80.96;99446.34;5011929;28;8874;-60
2021/01/21 06:17:50;;;;;;;;;13.00;12.00;;;;;2.40;80.68;99440.72;5012908;28;8847;-60
2021/01/21 06:20:18;;;;;;;;;30.50;22.25;;;;;2.24;80.97;99443.88;5012669;28;8853;-60
2021/01/21 06:22:47;;;;;;;;;29.50;20.25;;;;;2.11;81.97;99444.28;5012071;28;8905;-60
2021/01/21 06:25:21;;;;;;;;;38.00;26.00;;;;;1.97;82.35;99444.72;5007920;28;8865;-60
2021/01/21 06:27:49;;;;;;;;;22.50;20.00;;;;;2.03;82.16;99434.81;4993438;28;8876;-60
2021/01/21 06:30:20;;;;;;;;;33.00;24.75;;;;;2.11;80.71;99438.97;5012130;28;8873;-61
2021/01/21 06:33:05;;;;;;;;;18.25;14.25;;;;;2.00;81.66;99441.06;5011997;28;8925;-60
2021/01/21 06:35:41;;;;;;;;;34.75;21.00;;;;;2.02;81.77;99443.69;5012443;28;8916;-60
2021/01/21 06:38:20;;;;;;;;;29.25;27.00;;;;;2.09;81.92;99448.75;5011904;28;8858;-59
2021/01/21 06:40:53;;;;;;;;;47.00;35.75;;;;;2.19;81.82;99446.69;5027887;28;8855;-60
2021/01/21 06:43:30;;;;;;;;;28.00;27.50;;;;;2.42;81.37;99453.88;5027536;28;8862;-60
2021/01/21 06:46:01;;;;;;;;;36.75;24.50;;;;;2.69;80.90;99457.44;5010944;28;8908;-62
2021/01/21 06:48:29;;;;;;;;;24.50;22.75;;;;;2.99;79.20;99465.28;5027804;28;8874;-60
2021/01/21 06:50:57;;;;;;;;;20.50;19.00;;;;;3.46;78.02;99460.09;5011653;28;8847;-60
2021/01/21 06:53:27;;;;;;;;;14.25;7.75;;;;;3.52;77.34;99450.09;5011726;28;8961;-61
2021/01/21 06:55:54;;;;;;;;;19.50;10.75;;;;;3.96;75.39;99454.69;5011056;28;8977;-61
2021/01/21 06:58:47;;;;;;;;;11.25;11.25;;;;;3.97;75.15;99445.78;5026377;28;8882;-60
2021/01/21 07:01:32;;;;;;;;;16.00;10.00;;;;;3.96;75.50;99452.88;5014777;28;8861;-60
2021/01/21 07:04:24;;;;;;;;;14.33;10.67;;;;;4.32;74.65;99462.16;5028997;28;8832;-60
2021/01/21 07:06:57;;;;;;;;;28.25;23.25;;;;;4.57;75.53;99457.56;5010752;28;8858;-60
2021/01/21 07:09:26;;;;;;;;;46.25;35.25;;;;;4.48;73.70;99454.44;5012096;28;8948;-60
2021/01/21 07:11:56;;;;;;;;;62.50;44.75;;;;;4.55;73.34;99456.75;5027377;28;8847;-61
2021/01/21 07:14:34;;;;;;;;;35.50;29.25;;;;;4.67;73.29;99452.72;5026896;28;8873;-60
2021/01/21 07:17:04;;;;;;;;;40.75;29.50;;;;;4.41;72.99;99451.13;5026820;28;8835;-59
2021/01/21 07:19:41;;;;;;;;;50.00;36.50;;;;;3.92;74.51;99439.78;4994655;28;8919;-60
2021/01/21 07:22:23;;;;;;;;;49.50;34.50;;;;;3.60;76.21;99454.25;5026823;28;8855;-59
2021/01/21 07:24:56;;;;;;;;;44.75;38.75;;;;;3.34;77.47;99452.56;5023353;28;8956;-60
2021/01/21 07:27:27;;;;;;;;;30.00;23.75;;;;;3.25;78.45;99446.66;5023620;28;8862;-60
2021/01/21 07:30:20;;;;;;;;;31.00;24.50;;;;;3.54;77.58;99447.41;5005840;28;8846;-61
2021/01/21 07:32:48;;;;;;;;;31.25;26.75;;;;;3.34;78.66;99440.16;4992386;28;8853;-60
2021/01/21 07:35:36;;;;;;;;;28.75;26.25;;;;;3.45;78.38;99439.75;4991612;28;8857;-59
2021/01/21 07:38:03;;;;;;;;;32.25;23.50;;;;;3.58;78.23;99438.41;4990878;28;8923;-60
2021/01/21 07:40:46;;;;;;;;;26.50;21.00;;;;;3.85;77.75;99440.94;4991996;28;8872;-59
2021/01/21 07:43:14;;;;;;;;;21.25;19.50;;;;;3.87;77.49;99449.69;5008777;28;8885;-60
2021/01/21 07:46:26;;;;;;;;;21.75;20.50;;;;;3.98;77.61;99447.53;5011524;28;8839;-60
2021/01/21 07:49:27;;;;;;;;;24.50;18.25;;;;;4.11;77.23;99443.47;5006269;28;8857;-60
2021/01/21 07:52:07;;;;;;;;;30.00;20.25;;;;;4.24;77.21;99449.16;5011721;28;8925;-60
2021/01/21 07:54:54;;;;;;;;;25.50;25.50;;;;;4.35;77.19;99451.41;5011820;28;8905;-61
2021/01/21 07:57:23;;;;;;;;;37.00;24.50;;;;;4.15;77.15;99445.06;5010712;28;8867;-59
2021/01/21 08:00:02;;;;;;;;;45.25;42.75;;;;;4.27;77.88;99450.84;5011942;28;8823;-60
2021/01/21 08:02:49;;;;;;;;;51.25;45.25;;;;;4.56;76.27;99445.19;5012459;28;8847;-60
2021/01/21 08:05:23;;;;;;;;;66.00;50.50;;;;;4.57;76.03;99451.38;5014882;28;8914;-60
2021/01/21 08:07:53;;;;;;;;;35.25;33.75;;;;;4.76;76.32;99457.66;5015134;28;8839;-60
2021/01/21 08:10:29;;;;;;;;;50.50;41.50;;;;;4.68;75.78;99449.13;5030136;28;8846;-60
2021/01/21 08:13:10;;;;;;;;;42.75;36.25;;;;;4.81;75.97;99454.81;5024286;28;8931;-59
2021/01/21 08:15:37;;;;;;;;;35.50;26.50;;;;;4.97;76.17;99439.94;5013517;28;8849;-60
2021/01/21 08:18:05;;;;;;;;;54.25;41.75;;;;;4.98;75.28;99444.34;5010796;28;8858;-60
2021/01/21 08:20:36;;;;;;;;;30.33;28.00;;;;;5.19;75.30;99439.88;5009312;28;8854;-59
2021/01/21 08:23:10;;;;;;;;;66.75;50.50;;;;;5.37;73.62;99440.88;5029701;28;8831;-59
2021/01/21 08:25:46;;;;;;;;;43.25;34.00;;;;;5.83;73.08;99435.28;5013775;28;8835;-59
2021/01/21 08:28:22;;;;;;;;;30.67;27.33;;;;;5.85;73.92;99438.75;5029897;28;8831;-60
2021/01/21 08:30:50;;;;;;;;;19.67;16.33;;;;;6.80;70.49;99424.38;5030732;28;8869;-59
2021/01/21 08:33:22;;;;;;;;;18.33;15.00;;;;;7.06;69.59;99418.63;5017175;28;8867;-60
2021/01/21 08:36:00;;;;;;;;;7.33;7.33;;;;;7.35;68.45;99420.66;5021346;28;8851;-59
2021/01/21 08:38:35;;;;;;;;;8.00;8.00;;;;;7.49;68.31;99419.94;5013760;28;8921;-60
2021/01/21 08:41:07;;;;;;;;;29.33;23.33;;;;;7.76;67.57;99427.41;5013479;28;8843;-60
2021/01/21 08:43:40;;;;;;;;;51.33;36.00;;;;;7.98;66.75;99409.25;5014188;28;8855;-60
2021/01/21 08:46:33;;;;;;;;;12.67;7.33;;;;;8.12;66.21;99422.72;5013946;28;8830;-60
2021/01/21 08:49:10;;;;;;;;;12.00;11.67;;;;;8.16;65.84;99422.53;5027160;28;9034;-60
2021/01/21 08:51:42;;;;;;;;;15.67;11.67;;;;;8.19;65.83;99423.25;5029416;28;8873;-60
2021/01/21 08:54:20;;;;;;;;;13.00;10.67;;;;;8.25;64.83;99416.69;5013818;28;8866;-60
2021/01/21 08:57:12;;;;;;;;;11.00;11.00;;;;;8.07;65.66;99419.44;4994368;28;8858;-60
2021/01/21 08:59:41;;;;;;;;;8.67;8.67;;;;;7.99;65.96;99415.47;5009346;28;8944;-60
2021/01/21 09:02:09;;;;;;;;;10.00;8.33;;;;;8.16;65.47;99427.88;5028997;28;8937;-60
2021/01/21 09:04:39;;;;;;;;;12.00;7.67;;;;;8.07;66.39;99414.09;5014111;28;8952;-60
2021/01/21 09:07:09;;;;;;;;;9.33;7.33;;;;;8.26;65.18;99421.94;5013028;28;8965;-60
2021/01/21 09:09:41;;;;;;;;;9.00;6.33;;;;;8.14;65.49;99415.47;5013718;28;8835;-59
2021/01/21 09:12:25;;;;;;;;;9.67;6.00;;;;;8.24;65.23;99417.63;5012928;28;8842;-60
2021/01/21 09:15:08;;;;;;;;;11.67;9.00;;;;;8.33;64.59;99415.28;4993482;28;11568;-60
2021/01/21 09:17:37;;;;;;;;;5.00;4.33;;;;;8.35;64.63;99415.22;5011676;28;8855;-60
2021/01/21 09:20:24;;;;;;;;;6.67;6.33;;;;;8.44;64.50;99414.72;5035318;28;11486;-60
2021/01/21 09:23:20;;;;;;;;;12.00;9.00;;;;;8.47;64.43;99421.69;5033227;28;8848;-59
2021/01/21 09:25:49;;;;;;;;;19.00;14.00;;;;;8.64;64.35;99416.25;5015858;28;8854;-60
2021/01/21 09:28:17;;;;;;;;;10.00;9.00;;;;;8.86;62.71;99418.53;5028983;28;8932;-60
2021/01/21 09:30:44;;;;;;;;;9.00;9.00;;;;;8.71;64.08;99414.06;5013326;28;11529;-60
2021/01/21 09:33:11;;;;;;;;;10.33;10.33;;;;;8.83;63.82;99429.41;5012705;28;11617;-60
2021/01/21 09:35:41;;;;;;;;;7.00;6.00;;;;;8.91;63.54;99421.78;5012901;28;8909;-60
2021/01/21 09:38:09;;;;;;;;;7.00;7.00;;;;;9.19;63.42;99417.50;5012114;28;11641;-60
2021/01/21 09:40:37;;;;;;;;;10.00;7.00;;;;;9.22;62.71;99419.97;5013137;28;11544;-60
2021/01/21 09:43:05;;;;;;;;;6.75;5.50;;;;;9.02;63.68;99407.75;5016238;28;11635;-60
2021/01/21 09:45:33;;;;;;;;;24.67;16.00;;;;;9.41;62.49;99398.28;5013324;28;11532;-60
2021/01/21 09:48:01;;;;;;;;;10.33;7.00;;;;;9.67;61.97;99394.84;5013156;28;11534;-60
2021/01/21 09:50:29;;;;;;;;;14.00;10.00;;;;;9.77;63.24;99388.88;5012890;28;11524;-60
2021/01/21 09:52:56;;;;;;;;;25.00;16.00;;;;;9.95;60.58;99405.63;5013405;28;11649;-61
2021/01/21 09:55:23;;;;;;;;;3.50;3.00;;;;;10.20;59.89;99392.38;5012482;28;11540;-60
2021/01/21 09:57:51;;;;;;;;;5.75;4.00;;;;;10.17;60.13;99403.31;5013171;28;12487;-60
2021/01/21 10:00:20;;;;;;;;;2.75;2.00;;;;;10.58;57.85;99386.34;5012439;28;11555;-59
2021/01/21 10:02:47;;;;;;;;;5.00;3.00;;;;;10.70;58.07;99384.69;5012649;28;11533;-60
2021/01/21 10:05:14;;;;;;;;;1.75;1.75;;;;;10.63;56.89;99386.91;5026602;28;11540;-60
2021/01/21 10:07:41;;;;;;;;;4.75;2.50;;;;;10.85;57.10;99382.75;5032092;28;11527;-59
2021/01/21 10:10:08;;;;;;;;;5.00;4.50;;;;;10.79;57.39;99385.88;5032215;28;11530;-60
2021/01/21 10:12:35;;;;;;;;;2.50;2.50;;;;;10.85;57.84;99388.13;5024178;28;11537;-59
2021/01/21 10:15:04;;;;;;;;;3.00;2.25;;;;;10.87;57.31;99381.69;5023828;28;12238;-59
2021/01/21 10:17:32;;;;;;;;;2.00;2.00;;;;;11.01;56.74;99372.72;5031828;28;11537;-59
2021/01/21 10:20:00;;;;;;;;;2.00;2.00;;;;;11.07;57.54;99388.41;5013116;28;11508;-59
2021/01/21 10:22:27;;;;;;;;;4.00;4.00;;;;;11.07;56.99;99374.97;5012003;28;11516;-59
2021/01/21 10:24:54;;;;;;;;;5.75;3.00;;;;;10.92;58.23;99359.91;5011415;28;11532;-60
2021/01/21 10:27:26;;;;;;;;;3.75;3.00;;;;;10.94;57.64;99369.59;5011918;28;11521;-61
2021/01/21 10:29:55;;;;;;;;;7.50;3.25;;;;;10.80;58.49;99352.72;5011973;28;11575;-61
2021/01/21 10:32:32;;;;;;;;;3.00;3.00;;;;;10.76;58.50;99352.88;5011889;28;11496;-58
2021/01/21 10:34:59;;;;;;;;;5.00;3.75;;;;;10.45;59.54;99347.84;5012097;28;11516;-58
2021/01/21 10:37:27;;;;;;;;;5.50;4.50;;;;;10.51;58.68;99358.22;5011902;28;11535;-58
2021/01/21 10:39:55;;;;;;;;;5.00;5.00;;;;;10.67;58.73;99353.53;5012400;28;11524;-59
2021/01/21 10:42:23;;;;;;;;;6.25;2.25;;;;;10.53;58.69;99350.88;5014215;28;11664;-58
2021/01/21 10:44:50;;;;;;;;;5.00;3.50;;;;;10.50;58.74;99346.59;5031829;28;11502;-59
2021/01/21 10:47:17;;;;;;;;;2.00;2.00;;;;;10.72;60.49;99348.72;5023319;28;11555;-59
2021/01/21 10:49:44;;;;;;;;;6.50;3.00;;;;;10.66;58.52;99337.50;5012674;28;11654;-58
2021/01/21 10:52:11;;;;;;;;;5.00;5.00;;;;;10.72;59.09;99340.66;5011883;28;11529;-58
2021/01/21 10:54:38;;;;;;;;;8.00;5.50;;;;;11.04;59.13;99329.53;4994700;28;11547;-59
2021/01/21 10:57:05;;;;;;;;;6.50;3.00;;;;;10.92;58.46;99330.38;5022520;28;11519;-59
2021/01/21 10:59:32;;;;;;;;;3.25;3.00;;;;;11.20;58.37;99327.47;5028228;28;12391;-58
2021/01/21 11:02:00;;;;;;;;;6.00;5.00;;;;;11.03;58.65;99327.78;5011240;28;11605;-59
2021/01/21 11:04:28;;;;;;;;;4.75;4.75;;;;;11.08;58.42;99330.16;4997764;28;11532;-59
2021/01/21 11:06:55;;;;;;;;;8.00;4.25;;;;;11.05;58.74;99320.50;5025401;28;11614;-59
2021/01/21 11:09:33;;;;;;;;;4.25;4.00;;;;;10.92;57.69;99320.47;5031717;28;11511;-59
2021/01/21 11:12:00;;;;;;;;;9.50;5.50;;;;;10.60;59.73;99322.69;5022260;28;11581;-59
2021/01/21 11:14:27;;;;;;;;;5.75;5.25;;;;;10.66;59.69;99308.81;5012319;28;11550;-58
2021/01/21 11:16:54;;;;;;;;;6.25;6.00;;;;;10.49;59.71;99307.31;5021136;28;11494;-59
2021/01/21 11:19:21;;;;;;;;;8.00;5.00;;;;;10.55;60.09;99308.69;5017485;28;12237;-59
2021/01/21 11:21:52;;;;;;;;;7.00;5.00;;;;;10.64;60.66;99309.94;5026232;28;12281;-59
2021/01/21 11:24:20;;;;;;;;;9.25;6.00;;;;;10.62;60.71;99306.47;5045324;28;11517;-58
2021/01/21 11:26:47;;;;;;;;;10.25;5.75;;;;;10.48;59.85;99299.38;5011606;28;11510;-58
2021/01/21 11:29:14;;;;;;;;;6.00;6.00;;;;;10.66;61.87;99303.47;5002653;28;11565;-59
2021/01/21 11:31:41;;;;;;;;;7.50;6.00;;;;;10.46;61.81;99307.50;4991813;28;11525;-58
2021/01/21 11:34:08;;;;;;;;;7.00;4.25;;;;;10.33;60.25;99301.25;4991728;28;12272;-58
2021/01/21 11:36:35;;;;;;;;;9.25;5.75;;;;;10.23;61.73;99302.78;4998634;28;11571;-59
2021/01/21 11:39:03;;;;;;;;;6.00;5.00;;;;;10.20;61.78;99303.84;5035056;28;11515;-58
2021/01/21 11:41:30;;;;;;;;;10.00;5.50;;;;;10.23;62.71;99300.94;5031319;28;11504;-58
2021/01/21 11:43:57;;;;;;;;;6.50;6.50;;;;;10.19;61.03;99294.09;5015040;28;11621;-58
2021/01/21 11:46:24;;;;;;;;;6.00;5.00;;;;;10.38;60.87;99299.13;5015444;28;11512;-59
2021/01/21 11:48:52;;;;;;;;;9.00;5.50;;;;;10.30;60.84;99288.03;5015340;28;11640;-59
2021/01/21 11:51:20;;;;;;;;;10.25;6.00;;;;;10.28;61.69;99293.50;5014855;28;11626;-59
2021/01/21 11:53:47;;;;;;;;;7.25;6.75;;;;;10.39;61.54;99290.09;5015041;28;12333;-58
2021/01/21 11:56:14;;;;;;;;;6.50;5.00;;;;;10.49;60.93;99290.34;5014771;28;11521;-59
2021/01/21 11:58:45;;;;;;;;;7.25;2.75;;;;;10.40;60.69;99280.22;5007190;28;11543;-58
2021/01/21 12:01:12;;;;;;;;;8.00;7.00;;;;;10.44;61.86;99282.59;4995239;28;11630;-59
2021/01/21 12:03:40;;;;;;;;;5.00;5.00;;;;;10.54;61.81;99277.47;4995072;28;11548;-59
2021/01/21 12:06:07;;;;;;;;;6.25;6.25;;;;;10.53;61.60;99286.47;4994620;28;12289;-59
2021/01/21 12:08:34;;;;;;;;;7.00;6.00;;;;;10.46;61.01;99287.88;4997908;28;11662;-58
2021/01/21 12:11:01;;;;;;;;;10.00;6.00;;;;;10.57;61.55;99287.13;5005323;28;11544;-59